Time;durP1;ratioP1;P1;durP2;ratioP2;P2;SDS_P1;SDS_P2;PMS_P1;PMS_P2;Temp;Humidity;BMP_temperature;BMP_pressure;BME280_temperature;BME280_humidity;BME280_pressure;Samples;Min_cycle;Max_cycle;Signal;HPM_P1;HPM_P2
2021/12/09 04:03:07;;;;;;;13.30;5.00;;;1.80;91.70;;;;;;5152961;27;20107;-49
2021/12/09 04:05:33;;;;;;;13.98;5.32;;;1.80;91.70;;;;;;5152892;27;20347;-48
2021/12/09 04:07:58;;;;;;;18.55;9.75;;;1.70;91.50;;;;;;5152230;27;20088;-52
2021/12/09 04:10:25;;;;;;;20.27;7.00;;;1.60;91.60;;;;;;5152172;27;20373;-49
2021/12/09 04:12:51;;;;;;;13.60;6.32;;;1.70;91.80;;;;;;5152305;27;20031;-47
2021/12/09 04:15:17;;;;;;;22.90;6.82;;;1.60;91.90;;;;;;5152448;27;20413;-49
2021/12/09 04:17:43;;;;;;;14.93;6.40;;;1.60;92.00;;;;;;5152134;27;20075;-53
2021/12/09 04:20:10;;;;;;;18.45;7.65;;;1.80;92.00;;;;;;5152306;27;20048;-51
2021/12/09 04:22:37;;;;;;;16.90;6.70;;;1.90;91.10;;;;;;5151805;27;20023;-52
2021/12/09 04:25:05;;;;;;;22.83;8.05;;;1.90;90.70;;;;;;5152207;27;20023;-48
2021/12/09 04:27:31;;;;;;;18.13;6.80;;;1.80;90.30;;;;;;5152143;27;20030;-51
2021/12/09 04:29:57;;;;;;;16.23;6.47;;;1.80;90.50;;;;;;5151754;27;20027;-50
2021/12/09 04:32:22;;;;;;;14.48;6.15;;;1.90;90.50;;;;;;5151808;27;20042;-53
2021/12/09 04:34:53;;;;;;;19.48;6.32;;;1.80;90.40;;;;;;5150497;27;20026;-49
2021/12/09 04:37:19;;;;;;;;;;;1.80;90.00;;;;;;5152114;27;20353;-51
2021/12/09 04:39:45;;;;;;;21.98;6.07;;;1.70;90.20;;;;;;5151780;27;19975;-51
2021/12/09 04:42:11;;;;;;;11.77;5.68;;;1.60;90.50;;;;;;5151441;27;20023;-49
2021/12/09 04:44:36;;;;;;;11.55;7.32;;;1.50;90.40;;;;;;5151429;27;20031;-50
2021/12/09 04:47:02;;;;;;;14.52;5.90;;;1.50;90.70;;;;;;5151683;27;20015;-49
2021/12/09 04:49:28;;;;;;;15.45;6.95;;;1.60;90.90;;;;;;5151434;27;20079;-48
2021/12/09 04:51:54;;;;;;;19.05;7.10;;;1.80;90.80;;;;;;5151392;27;20447;-49
2021/12/09 04:54:20;;;;;;;12.75;6.25;;;1.80;90.30;;;;;;5151648;27;20464;-52
2021/12/09 04:56:46;;;;;;;14.48;6.47;;;1.80;90.00;;;;;;5151291;27;20028;-48
2021/12/09 04:59:12;;;;;;;15.43;6.13;;;1.80;90.00;;;;;;5151616;27;20038;-49
2021/12/09 05:01:38;;;;;;;16.38;6.78;;;1.80;90.30;;;;;;5149557;27;20498;-52
2021/12/09 05:04:04;;;;;;;17.25;7.65;;;1.90;90.90;;;;;;5151344;27;20019;-50
2021/12/09 05:06:31;;;;;;;14.32;5.25;;;1.90;90.70;;;;;;5149800;27;20023;-51
2021/12/09 05:08:59;;;;;;;18.55;6.10;;;1.90;90.80;;;;;;5151018;27;20088;-49
2021/12/09 05:11:48;;;;;;;17.13;7.05;;;1.80;90.90;;;;;;5150932;27;20105;-52
2021/12/09 05:14:19;;;;;;;15.45;6.43;;;1.80;91.00;;;;;;5138636;27;20068;-54
2021/12/09 05:16:46;;;;;;;19.00;6.30;;;1.80;91.10;;;;;;5137219;27;20033;-49
2021/12/09 05:19:12;;;;;;;18.65;6.30;;;1.80;91.20;;;;;;5136888;27;20106;-50
2021/12/09 05:21:39;;;;;;;15.40;5.47;;;1.70;91.30;;;;;;5136995;27;20102;-49
2021/12/09 05:24:10;;;;;;;20.58;6.07;;;1.80;91.50;;;;;;5137087;27;20459;-51
2021/12/09 05:26:45;;;;;;;17.65;5.68;;;1.80;91.40;;;;;;5136863;27;20027;-52
2021/12/09 05:29:12;;;;;;;14.55;5.57;;;1.80;91.50;;;;;;5137075;27;20051;-49
2021/12/09 05:34:22;;;;;;;13.48;6.18;;;1.70;91.50;;;;;;5136892;27;20061;-51
2021/12/09 05:36:49;;;;;;;9.60;5.78;;;1.70;91.70;;;;;;5136645;27;20433;-52
2021/12/09 05:39:15;;;;;;;12.90;5.90;;;1.70;91.50;;;;;;5136869;27;20098;-54
2021/12/09 05:41:42;;;;;;;10.90;5.35;;;1.70;91.60;;;;;;5136734;27;20500;-57
2021/12/09 05:44:09;;;;;;;11.98;5.78;;;1.70;91.60;;;;;;5136687;27;20072;-51
2021/12/09 05:46:44;;;;;;;16.83;6.88;;;1.70;91.60;;;;;;5136519;27;20015;-49
2021/12/09 05:49:11;;;;;;;9.15;4.65;;;1.80;91.60;;;;;;5136802;27;20094;-50
2021/12/09 05:51:37;;;;;;;13.07;5.13;;;1.80;91.80;;;;;;5136287;27;20048;-49
2021/12/09 05:54:04;;;;;;;15.00;5.68;;;1.80;91.50;;;;;;5136227;27;20035;-53
2021/12/09 05:56:30;;;;;;;14.65;5.13;;;1.80;91.60;;;;;;5136253;27;20038;-51
2021/12/09 05:58:56;;;;;;;13.55;5.53;;;1.80;91.50;;;;;;5136380;27;20463;-49
2021/12/09 06:01:22;;;;;;;14.25;5.57;;;1.70;91.40;;;;;;5135898;27;20047;-50
2021/12/09 06:03:48;;;;;;;21.75;6.90;;;1.80;91.60;;;;;;5136756;27;20028;-50
2021/12/09 06:06:14;;;;;;;13.32;4.93;;;1.80;91.60;;;;;;5136033;27;20114;-49
2021/12/09 06:08:40;;;;;;;12.35;7.85;;;1.80;91.60;;;;;;5135866;27;20478;-49
2021/12/09 06:11:07;;;;;;;19.63;5.70;;;1.70;91.40;;;;;;5136369;27;20522;-48
2021/12/09 06:13:36;;;;;;;17.13;5.75;;;1.70;91.50;;;;;;5134801;27;20094;-50
2021/12/09 06:16:03;;;;;;;25.52;7.18;;;1.60;91.50;;;;;;5136291;27;20034;-49
2021/12/09 06:18:28;;;;;;;13.57;6.15;;;1.60;91.60;;;;;;5135849;27;20482;-51
2021/12/09 06:20:54;;;;;;;16.08;5.60;;;1.60;91.60;;;;;;5135822;27;20015;-50
2021/12/09 06:23:20;;;;;;;22.63;6.13;;;1.60;91.80;;;;;;5134497;27;20072;-49
2021/12/09 06:25:46;;;;;;;21.92;7.13;;;1.70;91.70;;;;;;5134813;27;20025;-52
2021/12/09 06:28:12;;;;;;;19.30;6.35;;;1.70;91.80;;;;;;5136085;27;20019;-49
2021/12/09 06:30:37;;;;;;;17.92;7.15;;;1.70;91.90;;;;;;5135976;27;20034;-50
2021/12/09 06:33:05;;;;;;;19.00;5.90;;;1.60;91.80;;;;;;5135901;27;20374;-49
2021/12/09 06:35:31;;;;;;;15.32;7.00;;;1.50;91.60;;;;;;5134932;27;20483;-48
2021/12/09 06:37:57;;;;;;;17.10;6.35;;;1.40;91.70;;;;;;5135283;27;20050;-51
2021/12/09 06:40:24;;;;;;;16.30;6.65;;;1.40;91.90;;;;;;5135356;27;20083;-49
2021/12/09 06:42:52;;;;;;;14.65;6.75;;;1.40;92.00;;;;;;5133880;27;20436;-53
2021/12/09 06:45:19;;;;;;;26.02;7.65;;;1.30;92.00;;;;;;5135193;27;20019;-49
2021/12/09 06:47:46;;;;;;;17.85;5.60;;;1.40;92.10;;;;;;5133751;27;20050;-48
2021/12/09 06:50:15;;;;;;;11.00;5.90;;;1.40;92.20;;;;;;5134628;27;20019;-50
2021/12/09 06:52:41;;;;;;;11.38;5.47;;;1.40;92.20;;;;;;5134840;27;20031;-47
2021/12/09 06:55:10;;;;;;;16.15;6.72;;;1.50;92.30;;;;;;5134575;27;20400;-51
2021/12/09 06:57:36;;;;;;;21.45;8.00;;;1.60;92.20;;;;;;5134474;27;20030;-50
2021/12/09 07:00:11;;;;;;;19.23;6.93;;;1.60;92.10;;;;;;5134647;27;20031;-51
2021/12/09 07:02:37;;;;;;;15.10;6.72;;;1.50;92.00;;;;;;5134228;27;20050;-51
2021/12/09 07:05:04;;;;;;;15.45;7.18;;;1.50;92.00;;;;;;5134305;27;20023;-49
2021/12/09 07:07:30;;;;;;;19.00;7.28;;;1.60;92.00;;;;;;5133011;27;20038;-50
2021/12/09 07:09:56;;;;;;;17.50;7.85;;;1.60;91.80;;;;;;5133974;27;20019;-49
2021/12/09 07:12:22;;;;;;;19.63;8.45;;;1.60;91.60;;;;;;5134125;27;20459;-50
2021/12/09 07:14:47;;;;;;;15.20;6.57;;;1.50;91.50;;;;;;5134500;27;20152;-50
2021/12/09 07:17:13;;;;;;;17.58;7.63;;;1.40;91.50;;;;;;5134054;27;20110;-49
2021/12/09 07:19:39;;;;;;;18.70;7.50;;;1.40;91.70;;;;;;5134647;27;20030;-51
2021/12/09 07:22:05;;;;;;;20.40;7.60;;;1.40;91.70;;;;;;5134290;27;20110;-47
2021/12/09 07:24:31;;;;;;;24.42;7.68;;;1.60;91.80;;;;;;5134921;27;20050;-39
2021/12/09 07:26:57;;;;;;;19.42;8.48;;;1.60;91.60;;;;;;5132966;27;20525;-38
2021/12/09 07:29:26;;;;;;;21.98;7.57;;;1.50;91.50;;;;;;5134149;27;20102;-38
2021/12/09 07:31:52;;;;;;;28.52;9.07;;;1.50;91.50;;;;;;5133851;27;20130;-39
2021/12/09 07:34:18;;;;;;;17.77;7.72;;;1.60;91.30;;;;;;5133862;27;20038;-40
2021/12/09 07:36:44;;;;;;;19.92;9.90;;;1.50;90.80;;;;;;5132711;27;20027;-39
2021/12/09 07:39:10;;;;;;;13.05;7.75;;;1.60;91.00;;;;;;5132921;27;20031;-38
2021/12/09 07:41:36;;;;;;;20.92;9.93;;;1.50;90.60;;;;;;5134479;27;20019;-38
2021/12/09 07:44:02;;;;;;;14.38;8.45;;;1.50;90.80;;;;;;5134215;27;20023;-38
2021/12/09 07:46:35;;;;;;;19.13;8.52;;;1.50;90.90;;;;;;5134078;27;20106;-39
2021/12/09 07:49:02;;;;;;;20.30;8.30;;;1.60;91.00;;;;;;5133956;27;20074;-39
2021/12/09 07:51:28;;;;;;;26.90;7.60;;;1.50;91.20;;;;;;5135995;27;20058;-40
2021/12/09 07:53:53;;;;;;;20.50;7.88;;;1.70;91.00;;;;;;5134947;27;20448;-39
2021/12/09 07:56:19;;;;;;;15.95;6.50;;;1.60;91.00;;;;;;5133069;27;20023;-38
2021/12/09 07:58:45;;;;;;;22.80;7.65;;;1.70;91.30;;;;;;5115929;28;20019;-39
2021/12/09 14:03:15;;;;;;;14.57;5.90;;;4.70;85.70;;;;;;5131542;27;20110;-39
2021/12/09 14:05:50;;;;;;;10.90;5.40;;;4.70;86.10;;;;;;5131090;28;20448;-40
2021/12/09 14:08:27;;;;;;;13.38;5.65;;;4.80;86.20;;;;;;5131837;28;20031;-39
2021/12/09 14:11:01;;;;;;;27.55;5.60;;;4.80;86.20;;;;;;5131997;28;20031;-41
2021/12/09 14:13:28;;;;;;;20.73;6.32;;;4.80;85.50;;;;;;5113434;28;20457;-39
2021/12/09 14:18:41;;;;;;;12.30;5.10;;;4.80;85.70;;;;;;5131370;28;20026;-39
2021/12/09 14:21:07;;;;;;;8.98;4.85;;;4.80;85.40;;;;;;5132473;27;20038;-39
2021/12/09 14:23:33;;;;;;;9.68;4.60;;;4.80;85.40;;;;;;5132235;27;20479;-38
2021/12/09 14:26:00;;;;;;;7.15;3.25;;;4.90;85.20;;;;;;5133464;27;20080;-50
2021/12/09 14:28:25;;;;;;;7.40;4.35;;;4.80;85.30;;;;;;5130778;27;20019;-50
2021/12/09 14:30:51;;;;;;;7.10;3.90;;;4.80;85.70;;;;;;5131139;28;20027;-48
2021/12/09 14:33:19;;;;;;;12.00;5.28;;;4.70;86.50;;;;;;5130706;27;20034;-49
2021/12/09 14:35:52;;;;;;;18.08;5.03;;;4.70;86.70;;;;;;5129371;28;20016;-50
2021/12/09 14:38:22;;;;;;;14.13;5.43;;;4.70;86.20;;;;;;5129418;28;20019;-53
2021/12/09 14:40:51;;;;;;;11.27;5.05;;;4.70;85.90;;;;;;5130403;27;20027;-51
2021/12/09 14:43:19;;;;;;;8.85;4.60;;;4.60;85.90;;;;;;5130371;27;20544;-48
2021/12/09 14:45:54;;;;;;;14.68;4.93;;;4.60;85.80;;;;;;5130505;27;20075;-49
2021/12/09 14:48:35;;;;;;;12.05;5.47;;;4.60;85.90;;;;;;5132915;27;20038;-53
2021/12/09 14:51:31;;;;;;;10.40;5.05;;;4.70;85.70;;;;;;5131972;27;20035;-50
2021/12/09 14:54:00;;;;;;;8.73;4.30;;;4.70;85.70;;;;;;5124794;28;20084;-49
2021/12/09 14:56:42;;;;;;;11.05;5.10;;;4.70;85.40;;;;;;5131347;27;20413;-52
2021/12/09 14:59:28;;;;;;;9.13;4.65;;;4.70;85.50;;;;;;5131486;27;20031;-52
2021/12/09 15:02:28;;;;;;;7.82;4.50;;;4.80;85.20;;;;;;5130967;27;20546;-49
2021/12/09 15:05:06;;;;;;;10.75;4.78;;;4.80;85.30;;;;;;5130123;27;20026;-49
2021/12/09 15:07:42;;;;;;;12.32;4.45;;;4.70;85.60;;;;;;5130985;27;20499;-49
2021/12/09 15:10:11;;;;;;;12.10;5.85;;;4.60;85.90;;;;;;5129952;27;20023;-51
2021/12/09 15:12:39;;;;;;;7.07;3.85;;;4.50;86.90;;;;;;5126671;27;20032;-49
2021/12/09 15:15:08;;;;;;;7.22;4.35;;;4.50;87.10;;;;;;5116083;28;20105;-52
2021/12/09 15:17:37;;;;;;;10.73;6.25;;;4.50;87.30;;;;;;5116209;27;20024;-51
2021/12/09 15:20:11;;;;;;;15.75;5.28;;;4.40;87.80;;;;;;5115810;28;20045;-49
2021/12/09 15:22:39;;;;;;;11.45;5.35;;;4.30;88.20;;;;;;5116073;28;20027;-53
2021/12/09 15:25:08;;;;;;;12.43;5.47;;;4.30;88.90;;;;;;5115486;28;20024;-50
2021/12/09 15:28:01;;;;;;;8.80;6.00;;;4.30;89.30;;;;;;5115700;28;20106;-48
2021/12/09 15:31:04;;;;;;;14.38;5.25;;;4.30;89.40;;;;;;5117694;28;20036;-39
2021/12/09 15:33:47;;;;;;;12.13;6.65;;;4.20;89.90;;;;;;5114742;28;20028;-39
2021/12/09 15:36:18;;;;;;;19.08;6.10;;;4.30;89.80;;;;;;5116270;28;20305;-40
2021/12/09 15:39:08;;;;;;;10.93;6.55;;;4.30;89.80;;;;;;5115609;28;20028;-40
2021/12/09 15:41:38;;;;;;;11.35;5.47;;;4.30;90.40;;;;;;5115061;28;20386;-40
2021/12/09 15:44:30;;;;;;;;;;;4.20;90.50;;;;;;5116270;28;20519;-40
2021/12/09 15:47:06;;;;;;;12.38;7.00;;;4.10;91.10;;;;;;5113062;28;19911;-39
2021/12/09 15:49:39;;;;;;;19.40;6.38;;;4.10;91.30;;;;;;5115478;28;20027;-38
2021/12/09 15:52:05;;;;;;;14.30;6.63;;;4.10;91.10;;;;;;5115537;28;20479;-39
2021/12/09 15:54:35;;;;;;;15.95;7.35;;;4.20;91.30;;;;;;5115080;28;20076;-38
2021/12/09 15:57:05;;;;;;;17.17;7.57;;;4.20;91.00;;;;;;5114880;28;20498;-39
2021/12/09 15:59:33;;;;;;;17.50;8.45;;;4.10;91.10;;;;;;5114844;27;20024;-39
2021/12/09 16:02:02;;;;;;;10.32;4.90;;;4.00;91.40;;;;;;5114485;28;20052;-39
2021/12/09 16:04:29;;;;;;;15.88;8.10;;;4.10;91.50;;;;;;5115657;28;20453;-41
2021/12/09 16:06:55;;;;;;;14.70;8.15;;;4.10;91.60;;;;;;5115601;28;20024;-38
2021/12/09 16:09:21;;;;;;;14.52;8.85;;;4.10;91.90;;;;;;5114297;28;20116;-39
2021/12/09 16:11:47;;;;;;;10.90;6.15;;;4.10;91.80;;;;;;5115240;28;20103;-40
2021/12/09 16:14:15;;;;;;;14.07;8.00;;;4.10;91.60;;;;;;5097313;28;20502;-39
2021/12/09 16:16:46;;;;;;;26.02;14.70;;;3.90;91.70;;;;;;5113807;28;20125;-39
2021/12/09 16:19:13;;;;;;;15.77;7.57;;;3.90;92.30;;;;;;5115087;28;20030;-39
2021/12/09 16:21:57;;;;;;;10.50;6.15;;;3.80;92.30;;;;;;5114793;28;20030;-39
2021/12/09 16:24:23;;;;;;;14.65;8.73;;;3.90;92.50;;;;;;5114213;28;20057;-40
2021/12/09 16:26:51;;;;;;;18.90;10.43;;;3.90;92.70;;;;;;5115094;28;20016;-40
2021/12/09 16:29:19;;;;;;;16.33;9.63;;;4.10;92.60;;;;;;5113369;28;20475;-41
2021/12/09 16:31:46;;;;;;;11.05;7.80;;;3.90;92.50;;;;;;5115497;28;20472;-40
2021/12/09 16:34:12;;;;;;;22.30;9.77;;;3.90;92.60;;;;;;5114965;28;20471;-38
2021/12/09 16:36:38;;;;;;;17.35;9.18;;;3.90;92.80;;;;;;5113530;28;20019;-39
2021/12/09 16:39:05;;;;;;;16.38;8.98;;;3.90;92.80;;;;;;5113358;28;20031;-39
2021/12/09 16:41:31;;;;;;;16.80;10.32;;;3.80;92.80;;;;;;5115209;28;20038;-39
2021/12/09 16:43:58;;;;;;;18.48;9.38;;;3.90;92.80;;;;;;5115459;28;20094;-39
2021/12/09 16:46:24;;;;;;;17.15;10.85;;;3.80;92.70;;;;;;5114266;28;20027;-38
2021/12/09 16:48:50;;;;;;;18.55;8.48;;;3.90;92.70;;;;;;5112759;28;20019;-40
2021/12/09 16:51:17;;;;;;;18.95;10.30;;;4.00;92.70;;;;;;5115023;28;20499;-38
2021/12/09 16:53:46;;;;;;;14.55;8.57;;;3.90;92.60;;;;;;5114562;27;20115;-40
2021/12/09 16:57:09;;;;;;;18.73;8.55;;;3.90;92.50;;;;;;5115035;28;20111;-41
2021/12/09 16:59:20;;;;;;;18.25;8.50;;;4.00;92.60;;;;;;5109279;28;20032;-39
2021/12/09 17:01:58;;;;;;;17.20;9.05;;;4.00;92.30;;;;;;5113541;28;20036;-39
2021/12/09 17:04:25;;;;;;;14.40;7.72;;;4.00;92.40;;;;;;5113594;27;20448;-39
2021/12/09 17:06:53;;;;;;;20.17;8.20;;;4.10;92.30;;;;;;5113660;28;20463;-38
2021/12/09 17:09:19;;;;;;;16.33;8.68;;;4.00;92.30;;;;;;5114068;28;20119;-38
2021/12/09 17:11:46;;;;;;;13.55;8.82;;;4.00;92.30;;;;;;5113682;28;20478;-39
2021/12/09 17:14:14;;;;;;;16.83;8.88;;;4.00;92.20;;;;;;5112348;28;20015;-39
2021/12/09 17:16:40;;;;;;;14.10;8.02;;;3.90;92.30;;;;;;5113964;28;20028;-39
2021/12/09 17:19:07;;;;;;;19.30;10.57;;;3.80;92.40;;;;;;5113580;28;20487;-38
2021/12/09 17:21:33;;;;;;;13.82;8.57;;;4.00;92.40;;;;;;5113520;28;20055;-40
2021/12/09 17:23:59;;;;;;;15.75;7.82;;;4.00;92.40;;;;;;5112316;28;20103;-38
2021/12/09 17:26:26;;;;;;;20.67;11.18;;;4.10;92.50;;;;;;5114529;28;20024;-39
2021/12/09 17:28:52;;;;;;;15.40;8.23;;;4.10;92.20;;;;;;5114882;28;20016;-39
2021/12/09 17:31:26;;;;;;;15.98;8.52;;;4.20;91.90;;;;;;5113604;28;20161;-41
2021/12/09 17:33:53;;;;;;;18.45;9.48;;;4.20;91.80;;;;;;5113459;28;20060;-39
2021/12/09 17:36:19;;;;;;;13.80;9.43;;;4.30;91.80;;;;;;5111727;28;20028;-39
2021/12/09 17:38:45;;;;;;;13.18;8.70;;;4.30;91.50;;;;;;5113095;28;20315;-39
2021/12/09 17:41:10;;;;;;;18.25;8.82;;;4.30;91.50;;;;;;5111986;28;20416;-40
2021/12/09 17:43:38;;;;;;;16.35;9.02;;;4.30;91.40;;;;;;5112565;28;20050;-39
2021/12/09 17:46:04;;;;;;;15.48;9.13;;;4.30;91.90;;;;;;5113497;28;20023;-39
2021/12/09 17:48:32;;;;;;;15.40;8.68;;;4.10;92.00;;;;;;5113544;28;20043;-39
2021/12/09 17:51:01;;;;;;;16.98;9.05;;;4.10;92.30;;;;;;5112943;28;20020;-39
2021/12/09 17:53:28;;;;;;;13.70;7.20;;;4.10;92.20;;;;;;5113220;28;20027;-39
2021/12/09 17:55:55;;;;;;;18.45;9.80;;;4.00;92.50;;;;;;5113429;28;20028;-39
2021/12/09 17:58:22;;;;;;;18.80;9.20;;;4.00;92.80;;;;;;5113433;28;20384;-39
2021/12/09 18:00:50;;;;;;;14.18;8.35;;;4.20;92.70;;;;;;5111573;28;20024;-39
2021/12/09 18:03:16;;;;;;;15.90;8.75;;;4.10;92.50;;;;;;5111935;28;20486;-39
2021/12/09 18:05:42;;;;;;;17.60;9.57;;;4.10;92.70;;;;;;5113278;28;20028;-40
2021/12/09 18:08:09;;;;;;;249.75;167.93;;;4.10;92.70;;;;;;5113103;28;20056;-39
2021/12/09 18:10:37;;;;;;;18.48;11.07;;;4.10;93.00;;;;;;5113401;28;20476;-39
2021/12/09 18:13:05;;;;;;;17.98;9.52;;;4.10;93.20;;;;;;5113037;28;20035;-39
2021/12/09 18:15:36;;;;;;;27.58;14.07;;;4.20;92.90;;;;;;5113276;28;20024;-39
2021/12/09 18:18:08;;;;;;;21.25;12.90;;;4.20;92.70;;;;;;5111808;28;20043;-54
2021/12/09 18:20:36;;;;;;;23.55;9.70;;;4.20;92.60;;;;;;5113190;28;20083;-50
2021/12/09 18:23:02;;;;;;;19.95;10.68;;;4.20;92.60;;;;;;5112312;28;20053;-52
2021/12/09 18:25:28;;;;;;;18.73;11.10;;;4.20;92.60;;;;;;5113012;28;20523;-51
2021/12/09 18:27:55;;;;;;;15.15;10.18;;;4.20;92.60;;;;;;5113791;28;20098;-50
2021/12/09 18:30:27;;;;;;;20.70;8.55;;;4.20;92.60;;;;;;5113920;28;20019;-53
2021/12/09 18:32:53;;;;;;;15.48;9.20;;;4.10;92.40;;;;;;5113568;28;20081;-49
2021/12/09 18:35:32;;;;;;;28.38;12.52;;;4.10;92.60;;;;;;5113346;28;20034;-53
2021/12/09 18:38:00;;;;;;;17.25;9.07;;;4.10;92.90;;;;;;5113356;28;20047;-52
2021/12/09 18:40:30;;;;;;;17.33;10.82;;;4.00;92.80;;;;;;5113466;28;20100;-52
2021/12/09 18:42:56;;;;;;;15.18;9.07;;;4.10;92.90;;;;;;5113668;28;20490;-52
2021/12/09 18:45:24;;;;;;;15.43;9.70;;;4.20;92.80;;;;;;5113343;28;20024;-51
2021/12/09 18:47:55;;;;;;;17.35;10.88;;;4.10;92.50;;;;;;5114200;28;20058;-56
2021/12/09 18:50:24;;;;;;;28.27;17.65;;;4.10;92.60;;;;;;5117001;28;20020;-51
2021/12/09 18:52:51;;;;;;;14.95;9.50;;;4.10;92.50;;;;;;5117527;28;20028;-49
2021/12/09 18:55:17;;;;;;;18.10;11.45;;;4.10;92.40;;;;;;5117422;28;20205;-49
2021/12/09 18:57:43;;;;;;;15.65;10.73;;;4.00;92.60;;;;;;5116697;28;20063;-54
2021/12/09 19:00:13;;;;;;;18.13;10.02;;;4.10;92.60;;;;;;5117830;28;20077;-52
2021/12/09 19:02:40;;;;;;;16.42;11.27;;;4.10;92.60;;;;;;5117176;28;20062;-54
2021/12/09 19:05:07;;;;;;;13.60;8.52;;;4.10;92.80;;;;;;5116313;28;20461;-50
2021/12/09 19:07:33;;;;;;;15.88;10.25;;;4.10;92.90;;;;;;5117145;28;20019;-50
2021/12/09 19:09:59;;;;;;;15.15;10.52;;;4.10;92.70;;;;;;5116367;28;20027;-51
2021/12/09 19:12:25;;;;;;;15.07;10.30;;;4.10;92.80;;;;;;5116819;28;20027;-49
2021/12/09 19:14:52;;;;;;;16.98;10.98;;;4.10;92.70;;;;;;5117135;28;20027;-50
2021/12/09 19:17:30;;;;;;;17.55;10.95;;;4.10;92.70;;;;;;5116966;27;20023;-52
2021/12/09 19:19:56;;;;;;;14.10;9.70;;;4.10;92.70;;;;;;5118196;28;20508;-53
2021/12/09 19:22:25;;;;;;;17.27;10.40;;;4.00;92.70;;;;;;5116977;28;20379;-50
2021/12/09 19:24:57;;;;;;;12.50;8.30;;;4.10;92.80;;;;;;5116075;28;20027;-53
2021/12/09 19:27:24;;;;;;;16.15;10.77;;;4.00;92.80;;;;;;5116422;28;20027;-53
2021/12/09 19:29:50;;;;;;;20.25;13.38;;;4.10;92.90;;;;;;5114769;28;20024;-50
2021/12/09 19:32:16;;;;;;;14.43;9.32;;;4.20;92.80;;;;;;5115937;28;20035;-53
2021/12/09 19:34:41;;;;;;;15.75;10.75;;;4.10;92.30;;;;;;5116209;28;20386;-51
2021/12/09 19:37:08;;;;;;;13.95;9.88;;;4.10;92.30;;;;;;5117052;28;20383;-52
2021/12/09 19:39:33;;;;;;;20.23;11.23;;;4.10;92.50;;;;;;5115314;28;20490;-51
2021/12/09 19:41:59;;;;;;;17.73;11.75;;;4.20;92.60;;;;;;5115175;28;20055;-50
2021/12/09 19:44:25;;;;;;;16.55;9.68;;;4.20;92.20;;;;;;5117140;28;20031;-54
2021/12/09 19:46:51;;;;;;;24.15;11.35;;;4.20;92.20;;;;;;5117396;28;20171;-56
2021/12/09 19:49:18;;;;;;;19.13;11.10;;;4.30;92.10;;;;;;5116961;28;20028;-53
2021/12/09 19:51:46;;;;;;;18.55;12.15;;;4.20;92.10;;;;;;5116502;28;20076;-54
2021/12/09 19:54:13;;;;;;;12.60;7.93;;;4.20;92.30;;;;;;5116534;28;20030;-50
2021/12/09 19:56:39;;;;;;;13.18;7.93;;;4.10;92.40;;;;;;5115705;28;20020;-54
2021/12/09 19:59:06;;;;;;;14.38;11.23;;;4.20;92.20;;;;;;5117688;28;20027;-51
2021/12/09 20:01:32;;;;;;;17.77;10.68;;;4.30;92.20;;;;;;5115560;28;20070;-52
2021/12/09 20:03:59;;;;;;;16.23;10.07;;;4.20;92.10;;;;;;5116922;28;20039;-50
2021/12/09 20:06:24;;;;;;;15.40;10.93;;;4.20;92.00;;;;;;5115985;28;20024;-50
2021/12/09 20:08:54;;;;;;;17.75;10.13;;;4.30;91.80;;;;;;5115607;28;20026;-52
2021/12/09 20:11:21;;;;;;;16.60;10.77;;;4.30;91.50;;;;;;5114105;28;20387;-52
2021/12/09 20:13:50;;;;;;;16.27;10.27;;;4.30;91.60;;;;;;5113997;28;20035;-52
2021/12/09 20:16:23;;;;;;;17.55;9.85;;;4.30;91.60;;;;;;5115607;28;20471;-50
2021/12/09 20:18:51;;;;;;;13.23;8.88;;;4.20;91.60;;;;;;5115665;28;20035;-52
2021/12/09 20:21:20;;;;;;;14.98;10.02;;;4.30;91.40;;;;;;5115224;28;20080;-51
2021/12/09 20:23:51;;;;;;;14.60;8.73;;;4.20;91.60;;;;;;5115227;28;20040;-52
2021/12/09 20:26:18;;;;;;;15.45;9.85;;;4.30;91.40;;;;;;5115289;28;20020;-49
2021/12/09 20:28:44;;;;;;;15.45;10.00;;;4.30;91.30;;;;;;5115459;28;20071;-49
2021/12/09 20:31:10;;;;;;;15.32;9.48;;;4.30;91.20;;;;;;5115311;28;20050;-53
2021/12/09 20:33:37;;;;;;;28.83;13.93;;;4.30;91.40;;;;;;5114934;28;20032;-50
2021/12/09 20:36:04;;;;;;;14.65;10.80;;;4.40;91.20;;;;;;5115373;28;20031;-52
2021/12/09 20:38:29;;;;;;;15.02;9.77;;;4.30;91.10;;;;;;5113839;28;20028;-49
2021/12/09 20:40:55;;;;;;;20.40;13.43;;;4.30;91.40;;;;;;5114654;28;20034;-51
2021/12/09 20:43:22;;;;;;;13.57;9.77;;;4.30;91.60;;;;;;5113632;28;20026;-53
2021/12/09 20:45:47;;;;;;;19.40;12.00;;;4.30;91.60;;;;;;5115314;28;20046;-53
2021/12/09 20:48:13;;;;;;;16.23;9.85;;;4.30;91.90;;;;;;5115390;28;20436;-52
2021/12/09 20:50:40;;;;;;;14.52;10.18;;;4.30;91.80;;;;;;5115193;28;20444;-54
2021/12/09 20:53:08;;;;;;;16.42;10.77;;;4.20;92.00;;;;;;5116356;28;20042;-54
2021/12/09 20:55:36;;;;;;;20.88;11.38;;;4.30;92.20;;;;;;5115278;28;20382;-52
2021/12/09 20:58:04;;;;;;;17.10;12.65;;;4.30;92.30;;;;;;5115033;28;20076;-53
2021/12/09 21:00:30;;;;;;;20.58;13.43;;;4.30;92.10;;;;;;5114624;28;20475;-52
2021/12/09 21:02:56;;;;;;;17.50;11.45;;;4.30;92.00;;;;;;5114044;28;20050;-51
2021/12/09 21:05:22;;;;;;;20.83;12.73;;;4.30;92.10;;;;;;5114484;28;20024;-50
2021/12/09 21:07:48;;;;;;;11.57;7.40;;;4.30;91.90;;;;;;5115433;28;20023;-53
2021/12/09 21:10:18;;;;;;;19.15;11.30;;;4.30;91.80;;;;;;5114157;28;20023;-51
2021/12/09 21:12:45;;;;;;;18.63;10.80;;;4.30;92.00;;;;;;5114365;28;20059;-52
2021/12/09 21:15:14;;;;;;;17.35;9.82;;;4.30;92.00;;;;;;5114248;28;20043;-50
2021/12/09 21:17:40;;;;;;;16.25;10.15;;;4.20;91.80;;;;;;5114687;28;20024;-51
2021/12/09 21:20:09;;;;;;;21.10;11.10;;;4.10;91.90;;;;;;5114574;27;20391;-50
2021/12/09 21:22:36;;;;;;;18.35;10.27;;;4.20;92.00;;;;;;5114106;28;20138;-49
2021/12/09 21:25:06;;;;;;;14.85;8.68;;;4.20;92.10;;;;;;5114632;28;20472;-51
2021/12/09 21:27:33;;;;;;;;;;;4.10;92.10;;;;;;5115005;28;20439;-52
2021/12/09 21:29:58;;;;;;;23.73;10.38;;;4.10;92.20;;;;;;5114304;28;20308;-51
2021/12/09 21:32:24;;;;;;;18.25;10.45;;;4.20;92.10;;;;;;5114489;28;20028;-51
2021/12/09 21:35:09;;;;;;;16.15;9.88;;;4.10;91.90;;;;;;5114564;28;20020;-50
2021/12/09 21:37:35;;;;;;;16.80;10.85;;;4.20;92.20;;;;;;5114353;28;20028;-53
2021/12/09 21:40:01;;;;;;;19.45;10.85;;;4.10;92.00;;;;;;5114440;28;20497;-51
2021/12/09 21:42:26;;;;;;;17.77;11.65;;;4.10;91.80;;;;;;5113960;28;20031;-50
2021/12/09 21:44:52;;;;;;;17.50;10.15;;;4.20;92.00;;;;;;5113971;28;20028;-51
2021/12/09 21:47:18;;;;;;;13.80;9.60;;;4.20;91.70;;;;;;5113990;28;20016;-54
2021/12/09 21:49:44;;;;;;;13.30;9.10;;;4.20;91.80;;;;;;5114693;28;20024;-54
2021/12/09 21:52:10;;;;;;;15.27;8.90;;;4.10;91.80;;;;;;5114359;28;20028;-49
2021/12/09 21:54:37;;;;;;;13.63;10.43;;;4.00;91.90;;;;;;5113684;28;20386;-51
2021/12/09 21:57:04;;;;;;;17.48;9.95;;;4.00;92.40;;;;;;5113776;28;20031;-53
2021/12/09 21:59:32;;;;;;;15.70;9.85;;;4.00;92.30;;;;;;5113550;28;20031;-52
2021/12/09 22:01:59;;;;;;;19.55;10.40;;;4.00;92.60;;;;;;5113950;28;20078;-53
2021/12/09 22:04:25;;;;;;;17.90;9.13;;;3.90;92.80;;;;;;5113668;28;20019;-51
2021/12/09 22:06:51;;;;;;;17.95;9.65;;;4.00;92.80;;;;;;5112544;28;20031;-51
2021/12/09 22:09:16;;;;;;;16.20;10.05;;;3.90;92.70;;;;;;5113139;28;20027;-50
2021/12/09 22:11:42;;;;;;;13.98;8.75;;;4.00;92.90;;;;;;5113521;28;20039;-53
2021/12/09 22:14:09;;;;;;;19.30;10.70;;;4.00;92.80;;;;;;5114258;28;20043;-50
2021/12/09 22:16:38;;;;;;;15.90;10.20;;;4.00;92.80;;;;;;5113547;28;20110;-53
2021/12/09 22:19:04;;;;;;;14.20;9.90;;;4.00;92.60;;;;;;5113506;28;20099;-52
2021/12/09 22:21:30;;;;;;;21.83;10.48;;;4.00;92.70;;;;;;5113306;28;20024;-51
2021/12/09 22:23:58;;;;;;;19.67;10.68;;;4.00;92.50;;;;;;5115707;28;20043;-52
2021/12/09 22:26:24;;;;;;;16.90;10.63;;;4.00;92.50;;;;;;5117701;28;20076;-53
2021/12/09 22:28:50;;;;;;;18.67;10.27;;;4.00;92.40;;;;;;5118115;28;20370;-48
2021/12/09 22:31:18;;;;;;;17.77;10.98;;;4.10;92.10;;;;;;5115999;28;20032;-49
2021/12/09 22:33:44;;;;;;;17.90;9.93;;;4.10;92.00;;;;;;5120391;28;20042;-48
2021/12/09 22:36:11;;;;;;;20.15;10.93;;;4.10;91.90;;;;;;5119662;28;20379;-50
2021/12/09 22:38:37;;;;;;;17.70;10.15;;;4.10;91.80;;;;;;5117079;28;20205;-52
2021/12/09 22:41:04;;;;;;;14.57;8.85;;;4.10;91.70;;;;;;5116176;28;20020;-51
2021/12/09 22:43:30;;;;;;;15.80;9.50;;;3.90;92.00;;;;;;5117337;28;20016;-51
2021/12/09 22:45:57;;;;;;;18.55;9.57;;;4.00;92.20;;;;;;5117234;28;20027;-52
2021/12/09 22:48:24;;;;;;;14.35;9.18;;;3.90;92.10;;;;;;5116039;28;20042;-49
2021/12/09 22:51:01;;;;;;;12.73;7.90;;;3.80;92.30;;;;;;5117496;28;20023;-50
2021/12/09 22:53:27;;;;;;;16.50;9.88;;;3.80;92.20;;;;;;5117152;28;20031;-51
2021/12/09 22:55:53;;;;;;;14.88;10.02;;;3.80;92.20;;;;;;5116770;28;20107;-50
2021/12/09 22:58:19;;;;;;;18.88;9.45;;;3.70;92.40;;;;;;5116874;28;20031;-51
